Time;durP1;ratioP1;P1;durP2;ratioP2;P2;SDS_P1;SDS_P2;PMS_P1;PMS_P2;Temp;Humidity;BMP_temperature;BMP_pressure;BME280_temperature;BME280_humidity;BME280_pressure;Samples;Min_cycle;Max_cycle;Signal;HPM_P1;HPM_P2
2023/06/19 00:01:14;;;;;;;4.90;4.15;;;;;;;18.02;89.71;63861.25;5082340;28;20571;-78
2023/06/19 00:03:41;;;;;;;3.72;3.53;;;;;;;17.99;89.90;63855.56;5072009;28;20235;-77
2023/06/19 00:06:12;;;;;;;5.93;4.32;;;;;;;17.95;89.90;63856.53;5071154;28;20245;-75
2023/06/19 00:08:41;;;;;;;4.07;3.78;;;;;;;17.93;89.60;63851.38;5086477;28;20452;-78
2023/06/19 00:11:08;;;;;;;5.22;3.95;;;;;;;17.96;90.37;63857.06;5066949;28;20231;-77
2023/06/19 00:13:36;;;;;;;4.38;4.07;;;;;;;17.88;90.31;63846.66;5065885;28;20220;-77
2023/06/19 00:16:03;;;;;;;8.05;4.00;;;;;;;17.93;90.48;63848.78;5065708;28;20431;-77
2023/06/19 00:18:30;;;;;;;3.90;3.70;;;;;;;17.84;91.44;63841.97;5065864;28;20257;-77
2023/06/19 00:20:57;;;;;;;4.15;3.85;;;;;;;17.80;91.60;63840.91;5069446;28;20280;-77
2023/06/19 00:23:26;;;;;;;4.00;3.70;;;;;;;17.77;91.69;63835.22;5071772;28;20247;-78
2023/06/19 00:25:53;;;;;;;4.55;4.15;;;;;;;17.76;92.52;63831.06;5073597;28;20227;-76
2023/06/19 00:28:21;;;;;;;5.40;4.50;;;;;;;17.72;91.63;63829.50;5087969;28;20200;-77
2023/06/19 00:30:48;;;;;;;4.55;3.80;;;;;;;17.70;92.16;63832.56;5079773;28;20244;-77
2023/06/19 00:33:15;;;;;;;4.18;3.85;;;;;;;17.69;90.12;63826.88;5066025;28;20204;-77
2023/06/19 00:35:43;;;;;;;4.78;4.13;;;;;;;17.67;91.10;63821.72;5069461;28;20483;-77
2023/06/19 00:38:10;;;;;;;4.60;4.13;;;;;;;17.59;92.66;63821.63;5066125;28;20226;-77
2023/06/19 00:40:39;;;;;;;4.13;3.92;;;;;;;17.56;93.11;63815.41;5066834;28;20216;-77
2023/06/19 00:43:07;;;;;;;4.55;4.15;;;;;;;17.51;94.54;63808.16;5086280;28;20234;-77
2023/06/19 00:45:34;;;;;;;4.25;3.85;;;;;;;17.50;94.51;63807.09;5085725;28;20215;-78
2023/06/19 00:48:03;;;;;;;3.72;3.53;;;;;;;17.43;95.05;63801.84;5069048;28;20555;-78
2023/06/19 00:50:31;;;;;;;4.68;4.32;;;;;;;17.36;94.64;63797.13;5071468;28;20220;-77
2023/06/19 00:52:58;;;;;;;4.47;4.20;;;;;;;17.41;95.22;63802.34;5081137;28;20306;-77
2023/06/19 00:55:29;;;;;;;5.68;4.15;;;;;;;17.37;95.75;63790.44;5065001;28;20213;-78
2023/06/19 00:57:59;;;;;;;4.47;4.18;;;;;;;17.39;95.83;63795.09;5065573;28;20384;-79
2023/06/19 01:00:27;;;;;;;4.40;4.10;;;;;;;17.36;95.88;63791.97;5068348;28;20270;-79
2023/06/19 01:02:55;;;;;;;4.10;3.80;;;;;;;17.34;96.57;63793.50;5066653;28;20273;-79
2023/06/19 01:05:22;;;;;;;4.78;4.38;;;;;;;17.26;96.56;63784.66;5066009;28;20590;-79
2023/06/19 01:07:58;;;;;;;5.10;4.30;;;;;;;17.24;96.00;63780.00;5064790;28;20205;-77
2023/06/19 01:10:28;;;;;;;4.43;4.13;;;;;;;17.19;96.91;63779.94;5065005;28;20219;-78
2023/06/19 01:13:02;;;;;;;5.53;5.03;;;;;;;17.17;97.27;63775.81;5065585;28;20235;-78
2023/06/19 01:15:30;;;;;;;4.68;4.28;;;;;;;17.17;97.58;63775.31;5067826;28;20224;-77
2023/06/19 01:18:01;;;;;;;5.00;4.50;;;;;;;17.08;97.68;63765.94;5066134;28;20197;-77
2023/06/19 01:20:29;;;;;;;4.75;4.35;;;;;;;17.09;98.11;63766.97;5085817;28;20583;-78
2023/06/19 01:22:57;;;;;;;5.35;4.85;;;;;;;17.06;100.00;63761.81;5085182;28;20236;-77
2023/06/19 01:25:25;;;;;;;4.88;4.47;;;;;;;17.03;100.00;63756.09;5065605;28;20266;-80
2023/06/19 01:27:53;;;;;;;6.72;4.63;;;;;;;16.96;100.00;63750.88;5065268;28;20195;-78
2023/06/19 01:30:21;;;;;;;4.90;4.50;;;;;;;16.86;100.00;63740.97;5089986;28;20243;-78
2023/06/19 01:32:54;;;;;;;4.60;4.05;;;;;;;16.75;100.00;63731.59;5071524;28;20208;-78
2023/06/19 01:35:25;;;;;;;4.85;4.53;;;;;;;16.62;100.00;63712.91;5064216;28;20288;-78
2023/06/19 01:37:54;;;;;;;6.72;5.60;;;;;;;16.47;100.00;63697.31;5064191;28;20255;-77
2023/06/19 01:40:25;;;;;;;11.50;5.50;;;;;;;16.21;100.00;63673.31;5064814;28;20216;-78
2023/06/19 01:42:54;;;;;;;5.70;5.28;;;;;;;16.19;100.00;63676.38;5068670;28;20232;-77
2023/06/19 01:45:21;;;;;;;5.75;5.35;;;;;;;16.09;100.00;63660.84;5065697;28;20432;-77
2023/06/19 01:47:48;;;;;;;6.90;6.28;;;;;;;16.09;100.00;63661.38;5065043;28;20196;-77
2023/06/19 01:50:15;;;;;;;6.57;5.97;;;;;;;16.09;100.00;63658.28;5064180;28;20256;-77
2023/06/19 01:52:42;;;;;;;5.72;5.22;;;;;;;16.00;100.00;63646.34;5066140;28;20219;-78
2023/06/19 01:55:10;;;;;;;5.75;5.20;;;;;;;15.91;100.00;63642.13;5083024;28;20204;-77
2023/06/19 01:57:38;;;;;;;5.45;5.15;;;;;;;15.91;100.00;63647.28;5086219;28;20224;-78
2023/06/19 02:00:07;;;;;;;5.82;5.32;;;;;;;15.88;100.00;63639.00;5065203;28;20243;-77
2023/06/19 02:02:34;;;;;;;5.70;5.30;;;;;;;15.79;100.00;63632.22;5067006;28;20250;-76
2023/06/19 02:05:01;;;;;;;6.15;5.60;;;;;;;15.72;100.00;63624.94;5073535;28;20206;-77
2023/06/19 02:07:28;;;;;;;6.75;6.13;;;;;;;15.70;100.00;63620.81;5087298;28;20203;-78
2023/06/19 02:09:55;;;;;;;5.95;5.45;;;;;;;15.65;100.00;63615.59;5081740;28;20268;-77
2023/06/19 02:12:22;;;;;;;10.07;5.40;;;;;;;15.67;100.00;63615.13;5078173;28;20220;-77
2023/06/19 02:14:51;;;;;;;6.10;5.60;;;;;;;15.62;100.00;63614.53;5068377;28;20200;-78
2023/06/19 02:17:18;;;;;;;5.10;4.78;;;;;;;15.56;100.00;63611.41;5068649;28;20215;-77
2023/06/19 02:19:45;;;;;;;5.75;5.25;;;;;;;15.59;100.00;63606.28;5079318;28;20433;-77
2023/06/19 02:22:12;;;;;;;6.25;5.65;;;;;;;15.56;100.00;63610.88;5072582;28;20295;-76
2023/06/19 02:24:39;;;;;;;7.55;5.80;;;;;;;15.50;100.00;63602.59;5072129;28;20212;-78
2023/06/19 02:27:07;;;;;;;9.18;5.53;;;;;;;15.52;100.00;63606.72;5068191;28;20213;-76
2023/06/19 02:29:34;;;;;;;5.70;5.20;;;;;;;15.57;100.00;63604.22;5078597;28;20204;-77
2023/06/19 02:32:03;;;;;;;5.60;5.22;;;;;;;15.57;100.00;63609.88;5069057;28;20227;-76
2023/06/19 02:34:30;;;;;;;5.70;4.95;;;;;;;15.48;100.00;63597.44;5067678;28;20193;-77
2023/06/19 02:36:57;;;;;;;5.63;5.13;;;;;;;15.54;100.00;63606.22;5089074;28;20231;-76
2023/06/19 02:39:25;;;;;;;6.07;5.57;;;;;;;15.51;100.00;63597.97;5081525;28;20246;-77
2023/06/19 02:41:52;;;;;;;5.78;5.28;;;;;;;15.47;100.00;63601.53;5067901;28;20412;-78
2023/06/19 02:44:19;;;;;;;5.50;4.97;;;;;;;15.46;100.00;63595.34;5067589;28;20239;-77
2023/06/19 02:46:46;;;;;;;5.97;5.45;;;;;;;15.45;100.00;63596.88;5068872;28;20213;-77
2023/06/19 02:49:15;;;;;;;6.50;5.22;;;;;;;15.44;100.00;63593.28;5080040;28;20223;-76
2023/06/19 02:51:42;;;;;;;5.40;4.88;;;;;;;15.43;100.00;63592.25;5072004;28;20251;-77
2023/06/19 02:54:08;;;;;;;5.13;4.70;;;;;;;15.45;100.00;63591.72;5071472;28;20192;-78
2023/06/19 02:56:35;;;;;;;5.85;5.43;;;;;;;15.43;100.00;63594.81;5068455;28;20228;-76
2023/06/19 02:59:02;;;;;;;7.28;6.57;;;;;;;15.39;100.00;63591.16;5068862;28;20196;-77
2023/06/19 03:01:29;;;;;;;5.90;5.50;;;;;;;15.34;100.00;63583.38;5087701;28;20215;-77
2023/06/19 03:03:57;;;;;;;5.88;5.10;;;;;;;15.40;100.00;63594.25;5086883;28;20224;-77
2023/06/19 03:06:26;;;;;;;5.82;5.38;;;;;;;15.37;100.00;63588.53;5076005;28;20278;-78
2023/06/19 03:08:53;;;;;;;5.88;5.15;;;;;;;15.39;100.00;63593.19;5086283;28;20380;-76
2023/06/19 03:11:21;;;;;;;6.22;5.32;;;;;;;15.42;100.00;63591.19;5087026;28;20224;-79
2023/06/19 03:13:49;;;;;;;6.38;5.75;;;;;;;15.43;100.00;63595.31;5082764;28;20200;-77
2023/06/19 03:16:17;;;;;;;5.85;5.30;;;;;;;15.49;100.00;63595.91;5069945;28;20228;-77
2023/06/19 03:18:44;;;;;;;6.07;5.57;;;;;;;15.51;100.00;63600.56;5068649;28;20204;-76
2023/06/19 03:21:11;;;;;;;5.35;4.82;;;;;;;15.54;100.00;63603.66;5069781;28;20268;-76
2023/06/19 03:23:40;;;;;;;6.13;5.38;;;;;;;15.66;100.00;63616.13;5065457;28;20225;-76
2023/06/19 03:26:07;;;;;;;6.78;5.57;;;;;;;15.66;100.00;63614.09;5066749;28;20269;-77
2023/06/19 03:28:35;;;;;;;5.97;5.57;;;;;;;15.71;100.00;63619.28;5066175;28;20548;-78
2023/06/19 03:31:02;;;;;;;5.63;5.13;;;;;;;15.75;100.00;63633.19;5067240;28;20209;-76
2023/06/19 03:33:29;;;;;;;6.25;5.65;;;;;;;15.81;100.00;63629.69;5071100;28;20261;-77
2023/06/19 03:35:56;;;;;;;6.45;5.82;;;;;;;15.92;100.00;63640.59;5069705;28;20239;-77
2023/06/19 03:38:24;;;;;;;6.55;5.63;;;;;;;16.00;100.00;63652.00;5066157;28;20193;-78
2023/06/19 03:40:53;;;;;;;5.40;5.00;;;;;;;16.10;100.00;63659.34;5068538;28;20525;-77
2023/06/19 03:43:20;;;;;;;5.47;5.13;;;;;;;16.18;100.00;63667.66;5084418;28;20232;-77
2023/06/19 03:45:47;;;;;;;9.02;5.57;;;;;;;16.20;100.00;63672.81;5086745;28;20303;-77
2023/06/19 03:48:14;;;;;;;7.72;7.00;;;;;;;16.30;100.00;63682.16;5077017;28;20223;-76
2023/06/19 03:50:41;;;;;;;5.95;5.45;;;;;;;16.36;100.00;63691.00;5069640;28;20251;-76
2023/06/19 03:53:09;;;;;;;5.82;5.30;;;;;;;16.47;100.00;63699.88;5086309;28;20223;-78
2023/06/19 03:55:36;;;;;;;5.25;4.90;;;;;;;16.56;100.00;63706.66;5083361;28;20216;-77
2023/06/19 03:58:04;;;;;;;7.25;6.57;;;;;;;16.66;100.00;63724.78;5066834;28;20394;-77
2023/06/19 04:00:32;;;;;;;9.02;6.72;;;;;;;16.73;100.00;63732.59;5074187;28;20243;-77
2023/06/19 04:03:00;;;;;;;6.13;5.40;;;;;;;16.78;100.00;63732.66;5091122;28;20239;-77
2023/06/19 04:05:27;;;;;;;5.55;4.30;;;;;;;16.92;100.00;63746.69;5079448;28;20235;-77
2023/06/19 04:07:54;;;;;;;4.88;4.57;;;;;;;17.08;100.00;63763.88;5066004;28;20208;-79
2023/06/19 04:10:21;;;;;;;4.90;4.60;;;;;;;17.12;100.00;63765.47;5077068;28;20222;-77
2023/06/19 04:12:48;;;;;;;4.70;4.38;;;;;;;17.23;100.00;63784.13;5077847;28;20515;-77
2023/06/19 04:15:16;;;;;;;4.93;4.57;;;;;;;17.29;100.00;63785.22;5072876;28;20196;-78
2023/06/19 04:17:44;;;;;;;5.65;5.20;;;;;;;17.40;100.00;63796.66;5078257;28;20204;-77
2023/06/19 04:20:12;;;;;;;4.88;4.43;;;;;;;17.46;100.00;63799.81;5065344;28;20223;-76
2023/06/19 04:22:39;;;;;;;4.97;4.53;;;;;;;17.59;100.00;63816.47;5065490;28;20351;-77
2023/06/19 04:25:08;;;;;;;5.00;4.70;;;;;;;17.72;100.00;63830.00;5066408;28;20450;-78
2023/06/19 04:27:35;;;;;;;4.80;4.50;;;;;;;17.71;96.86;63825.84;5067772;28;20223;-77
2023/06/19 04:30:04;;;;;;;5.03;4.60;;;;;;;17.84;97.51;63842.50;5073080;28;20224;-78
2023/06/19 04:32:32;;;;;;;4.85;4.55;;;;;;;17.81;94.22;63844.03;5074914;28;20262;-76
2023/06/19 04:34:59;;;;;;;4.15;3.95;;;;;;;17.89;94.75;63845.13;5076342;28;20267;-76
2023/06/19 04:37:26;;;;;;;5.22;4.72;;;;;;;17.91;93.01;63849.78;5085143;28;20207;-76
2023/06/19 04:39:53;;;;;;;4.85;4.55;;;;;;;17.96;94.01;63857.06;5081844;28;20262;-76
2023/06/19 04:42:20;;;;;;;4.45;4.15;;;;;;;18.18;92.36;63877.94;5071342;28;20224;-75
2023/06/19 04:44:47;;;;;;;4.50;4.20;;;;;;;18.26;91.59;63888.81;5083016;28;20200;-75
2023/06/19 04:47:15;;;;;;;4.40;3.80;;;;;;;18.34;91.34;63892.00;5083234;28;20220;-78
2023/06/19 04:49:44;;;;;;;4.82;4.38;;;;;;;18.33;93.76;63890.97;5065126;28;20201;-78
2023/06/19 04:52:11;;;;;;;4.22;3.75;;;;;;;18.24;89.42;63886.75;5065474;28;20218;-75
2023/06/19 04:54:38;;;;;;;4.75;4.38;;;;;;;18.34;92.07;63896.66;5067091;28;20248;-75
2023/06/19 04:57:06;;;;;;;4.00;3.70;;;;;;;18.36;90.96;63899.25;5074710;28;20220;-76
2023/06/19 04:59:33;;;;;;;4.35;3.92;;;;;;;18.53;93.84;63915.94;5083033;28;20241;-77
2023/06/19 05:02:00;;;;;;;4.50;4.20;;;;;;;18.66;89.59;63932.59;5085925;28;20226;-77
2023/06/19 05:04:27;;;;;;;4.43;4.13;;;;;;;18.74;87.24;63933.19;5083049;28;20231;-77
2023/06/19 05:06:56;;;;;;;4.40;4.00;;;;;;;18.79;87.59;63946.16;5076588;28;20211;-77
2023/06/19 05:09:23;;;;;;;4.53;4.20;;;;;;;18.94;89.46;63956.09;5069863;28;20434;-78
2023/06/19 05:11:50;;;;;;;4.00;3.60;;;;;;;19.03;86.47;63970.66;5063873;28;20216;-76
2023/06/19 05:14:17;;;;;;;4.45;4.07;;;;;;;19.08;88.64;63975.84;5084136;28;20271;-78
2023/06/19 05:16:44;;;;;;;3.85;3.65;;;;;;;19.26;87.28;63989.44;5080954;28;21212;-76
2023/06/19 05:19:11;;;;;;;4.97;4.10;;;;;;;19.25;79.83;63988.94;5085223;28;20201;-76
2023/06/19 05:21:38;;;;;;;5.35;3.58;;;;;;;19.16;81.49;63982.13;5082811;28;20284;-79
2023/06/19 05:24:07;;;;;;;4.50;4.00;;;;;;;19.21;79.23;63981.66;5066171;28;20228;-77
2023/06/19 05:26:35;;;;;;;7.32;3.97;;;;;;;19.28;80.63;63992.06;5074960;28;20228;-76
2023/06/19 05:29:02;;;;;;;4.55;4.25;;;;;;;19.41;77.15;64005.13;5085434;28;20200;-79
2023/06/19 05:31:29;;;;;;;4.25;3.95;;;;;;;19.26;76.35;63994.63;5082225;28;20219;-76
2023/06/19 05:33:58;;;;;;;4.60;4.13;;;;;;;19.11;77.55;63981.56;5085561;28;20203;-75
2023/06/19 05:36:25;;;;;;;5.38;4.85;;;;;;;18.98;83.16;63960.28;5076026;28;20223;-76
2023/06/19 05:38:52;;;;;;;4.68;4.38;;;;;;;19.01;85.29;63958.75;5063779;28;20203;-77
2023/06/19 05:41:20;;;;;;;4.55;4.15;;;;;;;19.04;83.29;63967.03;5065669;28;20274;-77
2023/06/19 05:43:47;;;;;;;5.53;4.97;;;;;;;19.10;82.92;63970.72;5069622;28;20236;-77
2023/06/19 05:46:15;;;;;;;4.53;4.10;;;;;;;19.21;82.45;63987.34;5074150;28;20212;-76
2023/06/19 05:48:42;;;;;;;5.30;3.85;;;;;;;19.09;78.40;63974.84;5071685;28;20200;-77
2023/06/19 05:51:08;;;;;;;5.88;4.35;;;;;;;19.12;81.66;63980.53;5071975;28;20217;-76
2023/06/19 05:53:35;;;;;;;4.22;3.90;;;;;;;19.26;82.36;63992.56;5075037;28;20211;-77
2023/06/19 05:56:02;;;;;;;4.53;4.13;;;;;;;19.32;78.79;63998.31;5088871;28;20544;-78
2023/06/19 05:58:31;;;;;;;4.80;4.30;;;;;;;19.28;80.83;63997.22;5072209;28;20211;-78
2023/06/19 06:00:58;;;;;;;3.97;3.67;;;;;;;19.29;76.85;63995.69;5070004;28;20274;-78
2023/06/19 06:03:25;;;;;;;5.18;4.30;;;;;;;19.45;75.75;64009.28;5073586;28;20263;-78
2023/06/19 06:05:53;;;;;;;4.22;3.83;;;;;;;19.51;76.65;64015.56;5082615;28;20220;-76
2023/06/19 06:08:20;;;;;;;5.53;3.78;;;;;;;19.63;79.88;64033.22;5089304;28;20223;-79
2023/06/19 06:10:47;;;;;;;3.70;3.40;;;;;;;19.55;74.92;64020.25;5077620;28;20275;-77
2023/06/19 06:13:15;;;;;;;4.60;4.20;;;;;;;19.33;76.42;64002.47;5088167;28;20234;-75
2023/06/19 06:15:43;;;;;;;4.82;4.43;;;;;;;19.46;76.75;64015.50;5089242;28;20227;-75
2023/06/19 06:18:11;;;;;;;4.80;3.80;;;;;;;19.60;77.41;64024.41;5095532;28;20212;-77
2023/06/19 06:20:38;;;;;;;5.32;4.25;;;;;;;19.65;77.38;64032.75;5073535;28;20224;-78
2023/06/19 06:23:06;;;;;;;3.95;3.75;;;;;;;19.53;77.36;64015.56;5081769;28;20279;-78
2023/06/19 06:25:33;;;;;;;4.22;3.90;;;;;;;19.48;75.86;64009.84;5068158;28;20552;-78
2023/06/19 06:28:00;;;;;;;4.32;3.92;;;;;;;19.61;77.09;64022.88;5068543;28;20200;-79
2023/06/19 06:30:28;;;;;;;4.70;3.97;;;;;;;19.60;77.38;64024.94;5079327;28;20227;-75
2023/06/19 06:32:56;;;;;;;4.20;4.00;;;;;;;19.69;76.19;64036.41;5077143;28;20196;-75
2023/06/19 06:35:24;;;;;;;5.28;3.92;;;;;;;19.65;75.57;64030.16;5088841;28;20275;-75
2023/06/19 06:37:50;;;;;;;4.00;3.80;;;;;;;19.61;75.22;64028.56;5076112;28;20227;-78
2023/06/19 06:40:20;;;;;;;4.25;3.95;;;;;;;19.62;73.58;64029.63;5067638;28;20228;-76
2023/06/19 06:42:49;;;;;;;4.05;3.75;;;;;;;19.84;74.16;64049.44;5069235;28;20205;-77
2023/06/19 06:45:16;;;;;;;3.88;3.63;;;;;;;19.89;71.09;64057.25;5093073;28;20196;-77
2023/06/19 06:47:43;;;;;;;4.60;4.00;;;;;;;19.72;73.11;64037.47;5074923;28;20204;-75
2023/06/19 06:50:12;;;;;;;4.35;4.05;;;;;;;19.89;70.91;64057.25;5071875;28;20204;-77
2023/06/19 06:52:39;;;;;;;4.13;3.92;;;;;;;20.01;75.28;64072.34;5086379;28;20222;-77
2023/06/19 06:55:07;;;;;;;4.15;3.72;;;;;;;20.18;68.16;64084.94;5085767;28;20204;-77
2023/06/19 06:57:34;;;;;;;5.03;4.68;;;;;;;19.86;71.76;64057.22;5072500;28;20288;-75
2023/06/19 07:00:03;;;;;;;4.55;4.25;;;;;;;20.14;72.65;64083.34;5074427;28;20193;-77
2023/06/19 07:02:30;;;;;;;4.82;4.20;;;;;;;20.36;75.06;64106.31;5079832;28;20261;-77
2023/06/19 07:04:57;;;;;;;4.15;3.75;;;;;;;20.44;71.82;64112.06;5084593;28;20235;-78
2023/06/19 07:07:25;;;;;;;4.60;3.50;;;;;;;19.99;70.50;64065.63;5068541;28;20367;-75
2023/06/19 07:09:52;;;;;;;4.47;4.10;;;;;;;20.13;68.33;64082.81;5078155;28;20196;-72
2023/06/19 07:12:19;;;;;;;8.13;3.95;;;;;;;20.38;72.57;64108.91;5080075;28;20384;-73
2023/06/19 07:14:46;;;;;;;6.70;4.00;;;;;;;20.61;69.48;64132.41;5068446;28;20493;-71
2023/06/19 07:17:13;;;;;;;4.30;3.95;;;;;;;20.72;68.24;64138.19;5065819;28;20224;-72
2023/06/19 07:19:40;;;;;;;5.80;3.33;;;;;;;20.93;65.51;64165.28;5070447;28;20193;-73
2023/06/19 07:22:07;;;;;;;4.15;3.88;;;;;;;20.69;67.07;64138.69;5080593;28;20301;-73
2023/06/19 07:24:36;;;;;;;6.30;3.97;;;;;;;20.76;66.51;64145.47;5071285;28;20238;-74
2023/06/19 07:27:03;;;;;;;4.00;3.80;;;;;;;20.82;64.57;64148.63;5069467;28;20217;-72
2023/06/19 07:29:31;;;;;;;3.97;3.67;;;;;;;20.74;63.50;64140.28;5066899;28;20200;-72
2023/06/19 07:31:58;;;;;;;4.18;3.80;;;;;;;20.67;65.15;64138.69;5067492;28;20224;-74
2023/06/19 07:34:25;;;;;;;5.63;3.65;;;;;;;20.69;64.46;64140.78;5065932;28;20204;-74
2023/06/19 07:36:52;;;;;;;3.80;3.60;;;;;;;20.93;65.63;64167.88;5074044;28;20255;-72
2023/06/19 07:39:20;;;;;;;4.55;4.20;;;;;;;20.95;62.53;64162.72;5085779;28;20187;-73
2023/06/19 07:41:48;;;;;;;3.55;3.25;;;;;;;20.69;63.76;64136.09;5068472;28;20403;-73
2023/06/19 07:44:17;;;;;;;3.95;3.60;;;;;;;20.92;64.12;64164.25;5068843;28;20235;-72
2023/06/19 07:46:45;;;;;;;3.63;3.42;;;;;;;21.22;62.22;64196.13;5069578;28;20216;-72
2023/06/19 07:49:12;;;;;;;4.35;4.05;;;;;;;21.33;61.46;64207.09;5072840;28;20200;-73
2023/06/19 07:51:39;;;;;;;4.00;3.75;;;;;;;21.17;60.83;64190.38;5069657;28;20419;-75
2023/06/19 07:54:06;;;;;;;3.95;3.67;;;;;;;21.18;63.82;64191.94;5067325;28;20200;-73
2023/06/19 07:56:33;;;;;;;4.40;3.97;;;;;;;21.37;61.58;64209.19;5070551;28;20225;-73
2023/06/19 07:59:02;;;;;;;4.18;3.88;;;;;;;21.21;62.09;64194.56;5072961;28;20224;-73
2023/06/19 08:01:29;;;;;;;3.83;3.50;;;;;;;21.30;64.32;64203.94;5080219;28;20216;-72
2023/06/19 08:03:56;;;;;;;5.20;4.28;;;;;;;21.51;62.99;64229.00;5065222;28;20404;-74
2023/06/19 08:06:23;;;;;;;4.15;3.85;;;;;;;21.73;66.92;64246.28;5060013;28;20228;-74
2023/06/19 08:08:51;;;;;;;3.75;3.45;;;;;;;21.76;59.54;64254.59;5065638;28;20204;-73
2023/06/19 08:11:18;;;;;;;5.13;3.97;;;;;;;21.46;61.91;64221.19;5068435;28;20243;-73
2023/06/19 08:13:45;;;;;;;3.85;3.58;;;;;;;21.38;58.39;64210.22;5069490;28;20284;-73
2023/06/19 08:16:13;;;;;;;4.45;3.53;;;;;;;21.12;53.97;64185.66;5072091;28;20232;-73
2023/06/19 08:18:40;;;;;;;4.28;3.97;;;;;;;21.39;58.02;64210.75;5069590;28;20581;-74
2023/06/19 08:21:08;;;;;;;3.78;3.42;;;;;;;21.45;57.96;64220.13;5061608;28;20262;-74
2023/06/19 08:23:35;;;;;;;3.70;3.28;;;;;;;21.62;57.70;64235.31;5067105;28;20495;-75
2023/06/19 08:26:01;;;;;;;3.45;3.25;;;;;;;21.78;53.63;64259.81;5071639;28;20223;-74
2023/06/19 08:28:29;;;;;;;4.30;3.65;;;;;;;21.78;53.87;64252.03;5064088;28;20231;-73
2023/06/19 08:30:55;;;;;;;3.80;3.58;;;;;;;21.85;55.38;64260.91;5077499;28;20467;-75
2023/06/19 08:33:23;;;;;;;3.10;2.90;;;;;;;22.12;51.77;64291.72;5067215;28;20193;-75
2023/06/19 08:35:50;;;;;;;3.63;3.33;;;;;;;22.19;52.88;64296.97;5072542;28;20223;-75
2023/06/19 08:38:18;;;;;;;3.33;3.13;;;;;;;22.33;51.80;64311.59;5072306;28;20260;-74
2023/06/19 08:40:46;;;;;;;4.78;3.78;;;;;;;22.12;52.15;64289.13;5069420;28;20240;-73
2023/06/19 08:43:13;;;;;;;3.13;2.92;;;;;;;22.20;50.65;64298.00;5069791;28;20276;-74
2023/06/19 08:45:40;;;;;;;3.72;3.42;;;;;;;22.25;50.96;64302.69;5076438;28;20554;-72
2023/06/19 08:48:08;;;;;;;3.10;3.00;;;;;;;22.26;49.78;64298.56;5067439;28;20204;-73
2023/06/19 08:50:36;;;;;;;3.33;3.10;;;;;;;22.25;49.93;64307.91;5062092;28;20464;-74
2023/06/19 08:53:04;;;;;;;3.40;3.20;;;;;;;22.26;47.28;64306.88;5074665;28;20209;-76
2023/06/19 08:55:31;;;;;;;3.00;2.90;;;;;;;22.03;49.55;64277.13;5070014;28;20611;-75
2023/06/19 08:57:59;;;;;;;3.60;3.30;;;;;;;22.22;50.04;64299.56;5063955;28;20264;-74
2023/06/19 09:00:27;;;;;;;3.40;3.20;;;;;;;22.47;49.05;64328.81;5062147;28;20217;-74
2023/06/19 09:03:02;;;;;;;3.45;3.25;;;;;;;22.58;46.20;64337.75;5071671;28;20196;-74
2023/06/19 09:05:29;;;;;;;3.10;3.00;;;;;;;22.69;46.83;64348.72;5061929;28;20236;-74
2023/06/19 09:08:00;;;;;;;3.05;2.88;;;;;;;22.64;44.73;64341.41;5062411;28;20219;-75
2023/06/19 09:10:28;;;;;;;4.65;2.75;;;;;;;22.35;45.34;64313.16;5069892;28;20535;-74
2023/06/19 09:13:00;;;;;;;3.53;3.33;;;;;;;22.33;46.04;64313.66;5070999;28;20204;-73
2023/06/19 09:15:29;;;;;;;3.25;2.95;;;;;;;22.51;48.36;64329.88;5067042;28;20215;-74
2023/06/19 09:18:04;;;;;;;3.28;3.08;;;;;;;22.71;44.60;64348.75;5070029;28;20196;-74
2023/06/19 09:20:31;;;;;;;3.47;3.28;;;;;;;22.76;44.14;64353.97;5072824;28;20385;-73
2023/06/19 09:23:00;;;;;;;3.25;3.05;;;;;;;22.91;44.31;64366.53;5066808;28;20200;-75
2023/06/19 09:25:27;;;;;;;3.17;2.97;;;;;;;23.06;43.25;64390.00;5065146;28;20263;-76
2023/06/19 09:27:55;;;;;;;3.58;3.38;;;;;;;23.17;44.01;64401.53;5071977;28;20196;-77
2023/06/19 09:30:23;;;;;;;3.30;3.10;;;;;;;23.32;42.55;64414.63;5065854;28;20216;-79
2023/06/19 09:32:50;;;;;;;2.72;2.58;;;;;;;23.27;41.92;64409.38;5082739;28;20191;-76
2023/06/19 09:35:17;;;;;;;3.13;2.92;;;;;;;22.96;42.71;64371.25;5085336;28;20199;-79
2023/06/19 09:37:46;;;;;;;3.58;2.80;;;;;;;23.16;42.96;64397.38;5079444;28;20212;-76
2023/06/19 09:40:14;;;;;;;3.00;2.80;;;;;;;23.14;42.26;64395.25;5071328;28;20208;-76
2023/06/19 09:42:43;;;;;;;4.53;2.75;;;;;;;23.17;45.65;64395.81;5086302;28;20543;-77
2023/06/19 09:45:14;;;;;;;2.78;2.67;;;;;;;23.27;43.29;64406.25;5083997;28;20224;-77
2023/06/19 09:47:45;;;;;;;3.22;2.92;;;;;;;23.13;39.83;64394.75;5073264;28;20268;-76
2023/06/19 09:50:14;;;;;;;2.78;2.63;;;;;;;23.16;41.82;64397.88;5084086;28;20200;-76
2023/06/19 09:52:43;;;;;;;2.90;2.70;;;;;;;23.32;41.43;64412.03;5086434;28;20192;-76
2023/06/19 09:55:13;;;;;;;3.67;3.05;;;;;;;23.50;41.66;64432.94;5084089;28;20223;-78
2023/06/19 09:57:43;;;;;;;3.03;2.90;;;;;;;23.62;42.41;64448.63;5073256;28;20259;-76
2023/06/19 10:00:12;;;;;;;3.53;3.22;;;;;;;23.59;42.98;64439.75;5065355;28;20189;-77
2023/06/19 10:02:41;;;;;;;3.28;3.08;;;;;;;23.59;44.21;64440.28;5081181;28;20535;-77
2023/06/19 10:05:12;;;;;;;3.88;3.15;;;;;;;23.71;44.07;64457.53;5086311;28;20231;-74
2023/06/19 10:07:42;;;;;;;3.45;3.15;;;;;;;23.70;43.33;64453.88;5089982;28;20219;-78
2023/06/19 10:10:12;;;;;;;4.25;3.30;;;;;;;23.71;43.56;64455.44;5078675;28;20297;-78
2023/06/19 10:12:42;;;;;;;3.00;2.90;;;;;;;23.72;44.61;64450.75;5070768;28;20220;-77
2023/06/19 10:15:16;;;;;;;3.17;3.08;;;;;;;23.86;44.34;64473.75;5063899;28;20209;-77
2023/06/19 10:17:48;;;;;;;3.08;2.88;;;;;;;23.74;41.73;64458.59;5064718;28;20197;-77
2023/06/19 10:20:31;;;;;;;3.53;3.30;;;;;;;23.71;44.21;64455.44;5064451;28;20256;-77
2023/06/19 10:23:01;;;;;;;3.78;3.50;;;;;;;23.61;44.75;64447.56;5074301;28;20208;-76
2023/06/19 10:25:33;;;;;;;4.30;3.63;;;;;;;23.46;45.64;64431.34;5083992;28;20361;-75
2023/06/19 10:28:05;;;;;;;3.13;2.92;;;;;;;23.37;42.21;64419.84;5080760;28;20197;-78
2023/06/19 10:30:34;;;;;;;3.30;3.10;;;;;;;23.23;42.98;64409.88;5067270;28;20227;-75
2023/06/19 10:33:04;;;;;;;3.60;3.40;;;;;;;23.50;41.59;64436.06;5068517;28;20197;-78
2023/06/19 10:35:39;;;;;;;3.08;2.95;;;;;;;23.76;41.56;64460.66;5072888;28;20428;-79
2023/06/19 10:38:06;;;;;;;3.72;3.40;;;;;;;23.96;40.27;64481.06;5072808;28;20238;-77
2023/06/19 10:40:34;;;;;;;3.30;3.10;;;;;;;23.94;41.83;64481.56;5081349;28;20529;-77
2023/06/19 10:43:02;;;;;;;3.28;2.95;;;;;;;24.02;41.85;64487.38;5088075;28;20196;-76
2023/06/19 10:45:29;;;;;;;2.80;2.67;;;;;;;24.10;39.66;64495.22;5088442;28;20761;-75
2023/06/19 10:47:57;;;;;;;3.72;2.80;;;;;;;23.78;38.93;64462.75;5080671;28;20401;-78
2023/06/19 10:50:24;;;;;;;3.53;3.20;;;;;;;23.65;39.77;64451.22;5087639;28;20388;-76
2023/06/19 10:52:54;;;;;;;4.60;2.80;;;;;;;23.97;39.70;64482.13;5081643;28;20224;-79
2023/06/19 10:55:22;;;;;;;3.28;3.03;;;;;;;24.15;39.98;64500.97;5070273;28;20582;-77
2023/06/19 10:57:50;;;;;;;2.85;2.63;;;;;;;24.18;38.86;64506.22;5067919;28;20284;-76
2023/06/19 11:00:26;;;;;;;2.92;2.72;;;;;;;24.40;40.26;64524.03;5073676;28;20196;-78
2023/06/19 11:02:54;;;;;;;2.60;2.50;;;;;;;24.62;38.25;64549.66;5087307;28;20195;-75
2023/06/19 11:05:21;;;;;;;3.15;2.95;;;;;;;24.69;40.69;64559.63;5086603;28;20236;-75
2023/06/19 11:08:00;;;;;;;4.85;2.85;;;;;;;24.46;38.32;64536.03;5088907;28;20221;-76
2023/06/19 11:10:30;;;;;;;3.05;2.85;;;;;;;24.18;40.09;64506.72;5075296;28;20208;-76
2023/06/19 11:12:59;;;;;;;3.63;3.08;;;;;;;24.40;41.78;64526.63;5070923;28;20226;-76
2023/06/19 11:15:32;;;;;;;3.15;2.95;;;;;;;24.58;40.68;64548.06;5066453;28;20274;-77
2023/06/19 11:18:00;;;;;;;3.30;3.10;;;;;;;24.56;40.78;64540.78;5075158;28;20275;-76
2023/06/19 11:20:27;;;;;;;3.70;3.50;;;;;;;24.58;42.06;64546.00;5070276;28;20228;-77
2023/06/19 11:23:00;;;;;;;3.60;3.30;;;;;;;24.89;41.72;64577.94;5077424;28;20211;-77
2023/06/19 11:25:36;;;;;;;4.00;3.70;;;;;;;25.04;42.79;64596.25;5062271;28;20319;-75
2023/06/19 11:28:04;;;;;;;4.75;3.58;;;;;;;24.69;42.83;64551.81;5067021;28;20212;-76
2023/06/19 11:30:35;;;;;;;3.72;3.42;;;;;;;24.60;41.79;64542.34;5065466;28;20236;-75
2023/06/19 11:33:03;;;;;;;3.85;3.58;;;;;;;24.69;41.25;64557.53;5063153;28;20236;-78
2023/06/19 11:35:36;;;;;;;3.65;3.45;;;;;;;24.85;42.95;64573.78;5064069;28;20224;-77